sensor_id;sensor_type;location;lat;lon;timestamp;temperature;humidity
37446;DHT22;23307;51.136;14.942;2023-07-31T00:01:20;17.60;99.90
37446;DHT22;23307;51.136;14.942;2023-07-31T00:03:46;17.60;99.90
37446;DHT22;23307;51.136;14.942;2023-07-31T00:06:12;17.60;99.90
37446;DHT22;23307;51.136;14.942;2023-07-31T00:08:37;17.60;99.90
37446;DHT22;23307;51.136;14.942;2023-07-31T00:11:03;17.60;99.90
37446;DHT22;23307;51.136;14.942;2023-07-31T00:13:28;17.60;99.90
37446;DHT22;23307;51.136;14.942;2023-07-31T00:15:54;17.60;99.90
37446;DHT22;23307;51.136;14.942;2023-07-31T00:18:19;17.60;99.90
37446;DHT22;23307;51.136;14.942;2023-07-31T00:20:45;17.60;99.90
37446;DHT22;23307;51.136;14.942;2023-07-31T00:23:11;17.50;99.90
37446;DHT22;23307;51.136;14.942;2023-07-31T00:25:36;17.50;99.90
37446;DHT22;23307;51.136;14.942;2023-07-31T00:28:02;17.50;99.90
37446;DHT22;23307;51.136;14.942;2023-07-31T00:30:27;17.50;99.90
37446;DHT22;23307;51.136;14.942;2023-07-31T00:32:53;17.50;99.90
37446;DHT22;23307;51.136;14.942;2023-07-31T00:35:18;17.40;99.90
37446;DHT22;23307;51.136;14.942;2023-07-31T00:37:44;17.40;99.90
37446;DHT22;23307;51.136;14.942;2023-07-31T00:40:09;17.40;99.90
37446;DHT22;23307;51.136;14.942;2023-07-31T00:42:35;17.40;99.90
37446;DHT22;23307;51.136;14.942;2023-07-31T00:45:00;17.40;99.90
37446;DHT22;23307;51.136;14.942;2023-07-31T00:47:26;17.40;99.90
37446;DHT22;23307;51.136;14.942;2023-07-31T00:49:52;17.30;99.90
37446;DHT22;23307;51.136;14.942;2023-07-31T00:52:18;17.30;99.90
37446;DHT22;23307;51.136;14.942;2023-07-31T00:54:44;17.30;99.90
37446;DHT22;23307;51.136;14.942;2023-07-31T00:57:10;17.30;99.90
37446;DHT22;23307;51.136;14.942;2023-07-31T00:59:35;17.30;99.90
37446;DHT22;23307;51.136;14.942;2023-07-31T01:02:02;17.30;99.90
37446;DHT22;23307;51.136;14.942;2023-07-31T01:04:29;17.40;99.90
37446;DHT22;23307;51.136;14.942;2023-07-31T01:07:02;17.30;99.90
37446;DHT22;23307;51.136;14.942;2023-07-31T01:09:40;17.30;99.90
37446;DHT22;23307;51.136;14.942;2023-07-31T01:12:07;17.30;99.90
37446;DHT22;23307;51.136;14.942;2023-07-31T01:14:34;17.30;99.90
37446;DHT22;23307;51.136;14.942;2023-07-31T01:17:00;17.30;99.90
37446;DHT22;23307;51.136;14.942;2023-07-31T01:19:26;17.30;99.90
37446;DHT22;23307;51.136;14.942;2023-07-31T01:22:15;17.30;99.90
37446;DHT22;23307;51.136;14.942;2023-07-31T01:27:30;17.30;99.90
37446;DHT22;23307;51.136;14.942;2023-07-31T01:30:16;17.30;99.90
37446;DHT22;23307;51.136;14.942;2023-07-31T01:32:43;17.20;99.90
37446;DHT22;23307;51.136;14.942;2023-07-31T01:35:09;17.20;99.90
37446;DHT22;23307;51.136;14.942;2023-07-31T01:37:35;17.30;99.90
37446;DHT22;23307;51.136;14.942;2023-07-31T01:40:00;17.20;99.90
37446;DHT22;23307;51.136;14.942;2023-07-31T01:42:26;17.20;99.90
37446;DHT22;23307;51.136;14.942;2023-07-31T01:44:51;17.20;99.90
37446;DHT22;23307;51.136;14.942;2023-07-31T01:47:17;17.10;99.90
37446;DHT22;23307;51.136;14.942;2023-07-31T01:49:42;17.10;99.90
37446;DHT22;23307;51.136;14.942;2023-07-31T01:52:08;17.10;99.90
37446;DHT22;23307;51.136;14.942;2023-07-31T01:54:33;17.10;99.90
37446;DHT22;23307;51.136;14.942;2023-07-31T01:56:59;17.10;99.90
37446;DHT22;23307;51.136;14.942;2023-07-31T01:59:25;17.10;99.90
37446;DHT22;23307;51.136;14.942;2023-07-31T02:01:50;17.20;99.90
37446;DHT22;23307;51.136;14.942;2023-07-31T02:04:16;17.20;99.90
37446;DHT22;23307;51.136;14.942;2023-07-31T02:06:43;17.20;99.90
37446;DHT22;23307;51.136;14.942;2023-07-31T02:09:08;17.20;99.90
37446;DHT22;23307;51.136;14.942;2023-07-31T02:11:34;17.20;99.90
37446;DHT22;23307;51.136;14.942;2023-07-31T02:13:59;17.20;99.90
37446;DHT22;23307;51.136;14.942;2023-07-31T02:16:25;17.20;99.90
37446;DHT22;23307;51.136;14.942;2023-07-31T02:18:50;17.20;99.90
37446;DHT22;23307;51.136;14.942;2023-07-31T02:21:16;17.20;99.90
37446;DHT22;23307;51.136;14.942;2023-07-31T02:23:41;17.20;99.90
37446;DHT22;23307;51.136;14.942;2023-07-31T02:26:07;17.20;99.90
37446;DHT22;23307;51.136;14.942;2023-07-31T02:28:33;17.20;99.90
37446;DHT22;23307;51.136;14.942;2023-07-31T02:30:58;17.10;99.90
37446;DHT22;23307;51.136;14.942;2023-07-31T02:33:24;17.10;99.90
37446;DHT22;23307;51.136;14.942;2023-07-31T02:35:49;17.20;99.90
37446;DHT22;23307;51.136;14.942;2023-07-31T02:38:15;17.10;99.90
37446;DHT22;23307;51.136;14.942;2023-07-31T02:40:40;17.10;99.90
37446;DHT22;23307;51.136;14.942;2023-07-31T02:43:07;17.20;99.90
37446;DHT22;23307;51.136;14.942;2023-07-31T02:45:32;17.20;99.90
37446;DHT22;23307;51.136;14.942;2023-07-31T02:47:58;17.20;99.90
37446;DHT22;23307;51.136;14.942;2023-07-31T02:50:23;17.20;99.90
37446;DHT22;23307;51.136;14.942;2023-07-31T02:52:49;17.20;99.90
37446;DHT22;23307;51.136;14.942;2023-07-31T02:55:14;17.10;99.90
37446;DHT22;23307;51.136;14.942;2023-07-31T02:57:40;17.20;99.90
37446;DHT22;23307;51.136;14.942;2023-07-31T03:00:06;17.20;99.90
37446;DHT22;23307;51.136;14.942;2023-07-31T03:02:32;17.20;99.90
37446;DHT22;23307;51.136;14.942;2023-07-31T03:04:57;17.20;99.90
37446;DHT22;23307;51.136;14.942;2023-07-31T03:07:23;17.20;99.90
37446;DHT22;23307;51.136;14.942;2023-07-31T03:09:48;17.10;99.90
37446;DHT22;23307;51.136;14.942;2023-07-31T03:12:14;17.10;99.90
37446;DHT22;23307;51.136;14.942;2023-07-31T03:14:41;17.10;99.90
37446;DHT22;23307;51.136;14.942;2023-07-31T03:17:06;17.10;99.90
37446;DHT22;23307;51.136;14.942;2023-07-31T03:19:32;17.10;99.90
37446;DHT22;23307;51.136;14.942;2023-07-31T03:21:59;17.10;99.90
37446;DHT22;23307;51.136;14.942;2023-07-31T03:24:24;17.10;99.90
37446;DHT22;23307;51.136;14.942;2023-07-31T03:26:50;17.10;99.90
37446;DHT22;23307;51.136;14.942;2023-07-31T03:29:15;17.10;99.90
37446;DHT22;23307;51.136;14.942;2023-07-31T03:31:41;17.10;99.90
37446;DHT22;23307;51.136;14.942;2023-07-31T03:34:06;17.10;99.90
37446;DHT22;23307;51.136;14.942;2023-07-31T03:36:32;17.10;99.90
37446;DHT22;23307;51.136;14.942;2023-07-31T03:38:58;17.10;99.90
37446;DHT22;23307;51.136;14.942;2023-07-31T03:41:23;17.10;99.90
37446;DHT22;23307;51.136;14.942;2023-07-31T03:43:50;17.20;99.90
37446;DHT22;23307;51.136;14.942;2023-07-31T03:46:21;17.20;99.90
37446;DHT22;23307;51.136;14.942;2023-07-31T03:48:47;17.20;99.90
37446;DHT22;23307;51.136;14.942;2023-07-31T03:51:13;17.20;99.90
37446;DHT22;23307;51.136;14.942;2023-07-31T03:53:38;17.20;99.90
37446;DHT22;23307;51.136;14.942;2023-07-31T03:56:04;17.20;99.90
37446;DHT22;23307;51.136;14.942;2023-07-31T03:58:30;17.30;99.90
37446;DHT22;23307;51.136;14.942;2023-07-31T04:00:55;17.20;99.90
37446;DHT22;23307;51.136;14.942;2023-07-31T04:03:20;17.30;99.90
37446;DHT22;23307;51.136;14.942;2023-07-31T04:05:46;17.30;99.90
37446;DHT22;23307;51.136;14.942;2023-07-31T04:08:12;17.40;99.90
37446;DHT22;23307;51.136;14.942;2023-07-31T04:10:37;17.40;99.90
37446;DHT22;23307;51.136;14.942;2023-07-31T04:13:03;17.50;99.90
37446;DHT22;23307;51.136;14.942;2023-07-31T04:15:28;17.50;99.90
37446;DHT22;23307;51.136;14.942;2023-07-31T04:17:54;17.60;99.90
37446;DHT22;23307;51.136;14.942;2023-07-31T04:20:19;17.60;99.90
37446;DHT22;23307;51.136;14.942;2023-07-31T04:22:45;17.60;99.90
37446;DHT22;23307;51.136;14.942;2023-07-31T04:25:10;17.60;99.90
37446;DHT22;23307;51.136;14.942;2023-07-31T04:27:36;17.70;99.90
37446;DHT22;23307;51.136;14.942;2023-07-31T04:30:01;17.70;99.90
37446;DHT22;23307;51.136;14.942;2023-07-31T04:32:27;17.70;99.90
37446;DHT22;23307;51.136;14.942;2023-07-31T04:34:54;17.80;99.90
37446;DHT22;23307;51.136;14.942;2023-07-31T04:37:19;17.80;99.90
37446;DHT22;23307;51.136;14.942;2023-07-31T04:39:45;17.80;99.90
37446;DHT22;23307;51.136;14.942;2023-07-31T04:42:10;17.80;99.90
37446;DHT22;23307;51.136;14.942;2023-07-31T04:44:36;17.80;99.90
37446;DHT22;23307;51.136;14.942;2023-07-31T04:47:01;17.80;99.90
37446;DHT22;23307;51.136;14.942;2023-07-31T04:49:27;17.80;99.90
37446;DHT22;23307;51.136;14.942;2023-07-31T04:51:53;17.80;99.90
37446;DHT22;23307;51.136;14.942;2023-07-31T04:54:18;17.90;99.90
37446;DHT22;23307;51.136;14.942;2023-07-31T04:56:44;17.90;99.90
37446;DHT22;23307;51.136;14.942;2023-07-31T04:59:09;17.90;99.90
37446;DHT22;23307;51.136;14.942;2023-07-31T05:01:35;17.90;99.90
37446;DHT22;23307;51.136;14.942;2023-07-31T05:04:00;18.00;99.90
37446;DHT22;23307;51.136;14.942;2023-07-31T05:06:26;17.90;99.90
37446;DHT22;23307;51.136;14.942;2023-07-31T05:08:51;17.90;99.90
37446;DHT22;23307;51.136;14.942;2023-07-31T05:11:17;17.90;99.90
37446;DHT22;23307;51.136;14.942;2023-07-31T05:13:42;17.80;99.90
37446;DHT22;23307;51.136;14.942;2023-07-31T05:16:08;17.80;99.90
37446;DHT22;23307;51.136;14.942;2023-07-31T05:18:33;17.90;99.90
37446;DHT22;23307;51.136;14.942;2023-07-31T05:20:59;17.90;99.90
37446;DHT22;23307;51.136;14.942;2023-07-31T05:23:24;17.90;99.90
37446;DHT22;23307;51.136;14.942;2023-07-31T05:25:50;17.90;99.90
37446;DHT22;23307;51.136;14.942;2023-07-31T05:28:15;17.90;99.90
37446;DHT22;23307;51.136;14.942;2023-07-31T05:30:41;17.90;99.90
37446;DHT22;23307;51.136;14.942;2023-07-31T05:33:06;17.90;99.90
37446;DHT22;23307;51.136;14.942;2023-07-31T05:35:32;17.80;99.90
37446;DHT22;23307;51.136;14.942;2023-07-31T05:37:57;17.80;99.90
37446;DHT22;23307;51.136;14.942;2023-07-31T05:40:23;17.80;99.90
37446;DHT22;23307;51.136;14.942;2023-07-31T05:42:48;17.80;99.90
37446;DHT22;23307;51.136;14.942;2023-07-31T05:45:14;17.80;99.90
37446;DHT22;23307;51.136;14.942;2023-07-31T05:47:40;17.80;99.90
37446;DHT22;23307;51.136;14.942;2023-07-31T05:50:05;17.80;99.90
37446;DHT22;23307;51.136;14.942;2023-07-31T05:52:31;17.90;99.90
37446;DHT22;23307;51.136;14.942;2023-07-31T05:54:56;17.90;99.90
37446;DHT22;23307;51.136;14.942;2023-07-31T05:57:22;17.90;99.90
37446;DHT22;23307;51.136;14.942;2023-07-31T05:59:48;18.00;99.90
37446;DHT22;23307;51.136;14.942;2023-07-31T06:02:13;18.00;99.90
37446;DHT22;23307;51.136;14.942;2023-07-31T06:04:39;18.00;99.90
37446;DHT22;23307;51.136;14.942;2023-07-31T06:07:04;18.00;99.90
37446;DHT22;23307;51.136;14.942;2023-07-31T06:09:30;18.00;99.90
37446;DHT22;23307;51.136;14.942;2023-07-31T06:11:56;18.10;99.90
37446;DHT22;23307;51.136;14.942;2023-07-31T06:14:21;18.10;99.90
37446;DHT22;23307;51.136;14.942;2023-07-31T06:16:47;18.10;99.90
37446;DHT22;23307;51.136;14.942;2023-07-31T06:19:12;18.10;99.90
37446;DHT22;23307;51.136;14.942;2023-07-31T06:21:38;18.10;99.90
37446;DHT22;23307;51.136;14.942;2023-07-31T06:24:07;18.10;99.90
37446;DHT22;23307;51.136;14.942;2023-07-31T06:26:32;18.10;99.90
37446;DHT22;23307;51.136;14.942;2023-07-31T06:28:58;18.10;99.90
37446;DHT22;23307;51.136;14.942;2023-07-31T06:31:23;18.20;99.90
37446;DHT22;23307;51.136;14.942;2023-07-31T06:33:50;18.30;99.90
37446;DHT22;23307;51.136;14.942;2023-07-31T06:36:16;18.40;99.90
37446;DHT22;23307;51.136;14.942;2023-07-31T06:38:41;18.40;99.90
37446;DHT22;23307;51.136;14.942;2023-07-31T06:41:07;18.50;99.90
37446;DHT22;23307;51.136;14.942;2023-07-31T06:43:32;18.40;99.90
37446;DHT22;23307;51.136;14.942;2023-07-31T06:45:59;18.40;99.90
37446;DHT22;23307;51.136;14.942;2023-07-31T06:48:25;18.30;99.90
37446;DHT22;23307;51.136;14.942;2023-07-31T06:50:50;18.30;99.90
37446;DHT22;23307;51.136;14.942;2023-07-31T06:53:16;18.30;99.90
37446;DHT22;23307;51.136;14.942;2023-07-31T06:55:41;18.20;99.90
37446;DHT22;23307;51.136;14.942;2023-07-31T06:58:07;18.10;99.90
37446;DHT22;23307;51.136;14.942;2023-07-31T07:00:32;18.00;99.90
37446;DHT22;23307;51.136;14.942;2023-07-31T07:02:58;17.90;99.90
37446;DHT22;23307;51.136;14.942;2023-07-31T07:05:24;17.80;99.90
37446;DHT22;23307;51.136;14.942;2023-07-31T07:07:50;17.90;99.90
37446;DHT22;23307;51.136;14.942;2023-07-31T07:10:17;17.80;99.90
37446;DHT22;23307;51.136;14.942;2023-07-31T07:12:42;17.70;99.90
37446;DHT22;23307;51.136;14.942;2023-07-31T07:15:08;17.70;99.90
37446;DHT22;23307;51.136;14.942;2023-07-31T07:17:34;17.70;99.90
37446;DHT22;23307;51.136;14.942;2023-07-31T07:20:00;17.70;99.90
37446;DHT22;23307;51.136;14.942;2023-07-31T07:22:26;17.70;99.90
37446;DHT22;23307;51.136;14.942;2023-07-31T07:24:52;17.60;99.90
37446;DHT22;23307;51.136;14.942;2023-07-31T07:27:18;17.60;99.90
37446;DHT22;23307;51.136;14.942;2023-07-31T07:29:46;17.60;99.90
37446;DHT22;23307;51.136;14.942;2023-07-31T07:32:12;17.60;99.90
37446;DHT22;23307;51.136;14.942;2023-07-31T07:34:38;17.60;99.90
37446;DHT22;23307;51.136;14.942;2023-07-31T07:37:03;17.50;99.90
37446;DHT22;23307;51.136;14.942;2023-07-31T07:39:29;17.50;99.90
37446;DHT22;23307;51.136;14.942;2023-07-31T07:41:55;17.50;99.90
37446;DHT22;23307;51.136;14.942;2023-07-31T07:44:20;17.50;99.90
37446;DHT22;23307;51.136;14.942;2023-07-31T07:46:46;17.50;99.90
37446;DHT22;23307;51.136;14.942;2023-07-31T07:49:11;17.60;99.90
37446;DHT22;23307;51.136;14.942;2023-07-31T07:51:37;17.70;99.90
37446;DHT22;23307;51.136;14.942;2023-07-31T07:54:02;17.70;99.90
37446;DHT22;23307;51.136;14.942;2023-07-31T07:56:28;17.70;99.90
37446;DHT22;23307;51.136;14.942;2023-07-31T07:58:54;17.70;99.90
37446;DHT22;23307;51.136;14.942;2023-07-31T08:01:20;17.70;99.90
37446;DHT22;23307;51.136;14.942;2023-07-31T08:03:46;17.80;99.90
37446;DHT22;23307;51.136;14.942;2023-07-31T08:06:12;17.80;99.90
37446;DHT22;23307;51.136;14.942;2023-07-31T08:08:38;17.80;99.90
37446;DHT22;23307;51.136;14.942;2023-07-31T08:11:04;17.80;99.90
37446;DHT22;23307;51.136;14.942;2023-07-31T08:13:29;17.90;99.90
37446;DHT22;23307;51.136;14.942;2023-07-31T08:15:55;17.90;99.90
37446;DHT22;23307;51.136;14.942;2023-07-31T08:18:21;17.90;99.90
37446;DHT22;23307;51.136;14.942;2023-07-31T08:20:46;17.80;99.90
37446;DHT22;23307;51.136;14.942;2023-07-31T08:23:12;17.90;99.90
37446;DHT22;23307;51.136;14.942;2023-07-31T08:25:38;17.90;99.90
37446;DHT22;23307;51.136;14.942;2023-07-31T08:28:04;17.90;99.90
37446;DHT22;23307;51.136;14.942;2023-07-31T08:30:30;18.00;99.90
37446;DHT22;23307;51.136;14.942;2023-07-31T08:32:55;18.00;99.90
37446;DHT22;23307;51.136;14.942;2023-07-31T08:35:21;18.10;99.90
37446;DHT22;23307;51.136;14.942;2023-07-31T08:37:46;18.20;99.90
37446;DHT22;23307;51.136;14.942;2023-07-31T08:40:12;18.30;99.90
37446;DHT22;23307;51.136;14.942;2023-07-31T08:42:46;18.30;99.90
37446;DHT22;23307;51.136;14.942;2023-07-31T08:45:15;18.40;99.90
37446;DHT22;23307;51.136;14.942;2023-07-31T08:47:44;18.40;99.90
37446;DHT22;23307;51.136;14.942;2023-07-31T08:50:10;18.40;99.90
37446;DHT22;23307;51.136;14.942;2023-07-31T08:52:37;18.40;99.90
37446;DHT22;23307;51.136;14.942;2023-07-31T08:55:03;18.50;99.90
37446;DHT22;23307;51.136;14.942;2023-07-31T08:57:29;18.50;99.90
37446;DHT22;23307;51.136;14.942;2023-07-31T08:59:54;18.50;99.90
37446;DHT22;23307;51.136;14.942;2023-07-31T09:02:21;18.60;99.90
37446;DHT22;23307;51.136;14.942;2023-07-31T09:04:47;18.60;99.90
37446;DHT22;23307;51.136;14.942;2023-07-31T09:07:15;18.70;99.90
37446;DHT22;23307;51.136;14.942;2023-07-31T09:09:40;18.70;99.90
37446;DHT22;23307;51.136;14.942;2023-07-31T09:12:07;18.80;99.90
37446;DHT22;23307;51.136;14.942;2023-07-31T09:14:32;18.80;99.90
37446;DHT22;23307;51.136;14.942;2023-07-31T09:16:58;19.00;99.90
37446;DHT22;23307;51.136;14.942;2023-07-31T09:19:35;19.10;99.90
37446;DHT22;23307;51.136;14.942;2023-07-31T09:22:07;19.20;99.90
37446;DHT22;23307;51.136;14.942;2023-07-31T09:24:33;19.20;99.90
37446;DHT22;23307;51.136;14.942;2023-07-31T09:27:01;19.30;99.90
37446;DHT22;23307;51.136;14.942;2023-07-31T09:29:28;19.40;99.90
37446;DHT22;23307;51.136;14.942;2023-07-31T09:31:54;19.40;99.90
37446;DHT22;23307;51.136;14.942;2023-07-31T09:34:20;19.50;99.90
37446;DHT22;23307;51.136;14.942;2023-07-31T09:36:53;19.60;99.90
37446;DHT22;23307;51.136;14.942;2023-07-31T09:39:19;19.60;99.90
37446;DHT22;23307;51.136;14.942;2023-07-31T09:41:54;19.70;99.90
37446;DHT22;23307;51.136;14.942;2023-07-31T09:44:20;19.80;99.90
37446;DHT22;23307;51.136;14.942;2023-07-31T09:46:46;19.80;99.90
37446;DHT22;23307;51.136;14.942;2023-07-31T09:49:13;19.90;99.90
37446;DHT22;23307;51.136;14.942;2023-07-31T09:51:41;20.00;99.90
37446;DHT22;23307;51.136;14.942;2023-07-31T09:54:15;20.10;99.90
37446;DHT22;23307;51.136;14.942;2023-07-31T09:56:48;20.10;99.90
37446;DHT22;23307;51.136;14.942;2023-07-31T09:59:20;20.10;99.90
37446;DHT22;23307;51.136;14.942;2023-07-31T10:01:46;20.20;99.90
37446;DHT22;23307;51.136;14.942;2023-07-31T10:04:13;20.30;99.90
37446;DHT22;23307;51.136;14.942;2023-07-31T10:06:40;20.40;99.90
37446;DHT22;23307;51.136;14.942;2023-07-31T10:09:09;20.60;99.90
37446;DHT22;23307;51.136;14.942;2023-07-31T10:11:56;20.90;99.90
37446;DHT22;23307;51.136;14.942;2023-07-31T10:14:26;21.10;99.90
37446;DHT22;23307;51.136;14.942;2023-07-31T10:16:52;21.50;99.90
37446;DHT22;23307;51.136;14.942;2023-07-31T10:19:18;21.60;99.90
37446;DHT22;23307;51.136;14.942;2023-07-31T10:21:45;21.70;99.90
37446;DHT22;23307;51.136;14.942;2023-07-31T10:24:11;21.80;99.90
37446;DHT22;23307;51.136;14.942;2023-07-31T10:26:38;21.80;99.90
37446;DHT22;23307;51.136;14.942;2023-07-31T10:29:05;21.80;99.90
37446;DHT22;23307;51.136;14.942;2023-07-31T10:31:31;21.80;99.90
37446;DHT22;23307;51.136;14.942;2023-07-31T10:33:58;21.80;99.90
37446;DHT22;23307;51.136;14.942;2023-07-31T10:36:25;21.90;99.90
37446;DHT22;23307;51.136;14.942;2023-07-31T10:38:51;22.00;99.90
37446;DHT22;23307;51.136;14.942;2023-07-31T10:41:16;22.10;99.90
37446;DHT22;23307;51.136;14.942;2023-07-31T10:43:42;22.20;99.90
37446;DHT22;23307;51.136;14.942;2023-07-31T10:46:12;22.20;99.90
37446;DHT22;23307;51.136;14.942;2023-07-31T10:48:40;22.30;99.90
37446;DHT22;23307;51.136;14.942;2023-07-31T10:51:10;22.40;99.90
37446;DHT22;23307;51.136;14.942;2023-07-31T10:53:37;22.50;99.90
37446;DHT22;23307;51.136;14.942;2023-07-31T10:56:08;22.40;99.90
37446;DHT22;23307;51.136;14.942;2023-07-31T10:58:35;22.50;99.90
37446;DHT22;23307;51.136;14.942;2023-07-31T11:01:03;22.60;99.90
37446;DHT22;23307;51.136;14.942;2023-07-31T11:03:46;22.70;99.90
37446;DHT22;23307;51.136;14.942;2023-07-31T11:06:13;22.60;99.90
37446;DHT22;23307;51.136;14.942;2023-07-31T11:08:47;22.60;99.90
37446;DHT22;23307;51.136;14.942;2023-07-31T11:11:14;22.70;99.90
37446;DHT22;23307;51.136;14.942;2023-07-31T11:13:51;22.90;99.90
37446;DHT22;23307;51.136;14.942;2023-07-31T11:16:22;23.00;99.90
37446;DHT22;23307;51.136;14.942;2023-07-31T11:18:48;23.00;99.90
37446;DHT22;23307;51.136;14.942;2023-07-31T11:21:16;23.00;99.90
37446;DHT22;23307;51.136;14.942;2023-07-31T11:23:46;23.10;99.90
37446;DHT22;23307;51.136;14.942;2023-07-31T11:26:12;23.20;99.90
37446;DHT22;23307;51.136;14.942;2023-07-31T11:28:37;23.10;99.90
37446;DHT22;23307;51.136;14.942;2023-07-31T11:31:03;23.10;99.90
37446;DHT22;23307;51.136;14.942;2023-07-31T11:33:29;23.00;99.90
37446;DHT22;23307;51.136;14.942;2023-07-31T11:35:55;23.10;99.90
37446;DHT22;23307;51.136;14.942;2023-07-31T11:38:33;23.10;99.90
37446;DHT22;23307;51.136;14.942;2023-07-31T11:41:02;23.30;99.90
37446;DHT22;23307;51.136;14.942;2023-07-31T11:43:33;23.20;99.90
37446;DHT22;23307;51.136;14.942;2023-07-31T11:46:02;23.20;99.90
37446;DHT22;23307;51.136;14.942;2023-07-31T11:48:34;23.40;99.90
37446;DHT22;23307;51.136;14.942;2023-07-31T11:51:02;23.60;99.90
37446;DHT22;23307;51.136;14.942;2023-07-31T11:56:01;23.90;99.90
37446;DHT22;23307;51.136;14.942;2023-07-31T11:58:27;23.90;99.90
37446;DHT22;23307;51.136;14.942;2023-07-31T12:00:54;24.00;99.90
37446;DHT22;23307;51.136;14.942;2023-07-31T12:03:20;24.00;99.90
37446;DHT22;23307;51.136;14.942;2023-07-31T12:05:47;23.90;99.90
37446;DHT22;23307;51.136;14.942;2023-07-31T12:08:14;23.90;99.90
37446;DHT22;23307;51.136;14.942;2023-07-31T12:10:39;23.80;99.90
37446;DHT22;23307;51.136;14.942;2023-07-31T12:13:10;23.90;99.90
37446;DHT22;23307;51.136;14.942;2023-07-31T12:15:43;23.90;99.90
37446;DHT22;23307;51.136;14.942;2023-07-31T12:18:15;23.90;99.90
37446;DHT22;23307;51.136;14.942;2023-07-31T12:20:48;24.00;99.90
37446;DHT22;23307;51.136;14.942;2023-07-31T12:23:16;23.90;99.90
37446;DHT22;23307;51.136;14.942;2023-07-31T12:25:42;23.80;99.90
37446;DHT22;23307;51.136;14.942;2023-07-31T12:28:08;23.80;99.90
37446;DHT22;23307;51.136;14.942;2023-07-31T12:30:38;23.80;99.90
37446;DHT22;23307;51.136;14.942;2023-07-31T12:33:05;23.80;99.90
37446;DHT22;23307;51.136;14.942;2023-07-31T12:35:38;23.90;99.90
37446;DHT22;23307;51.136;14.942;2023-07-31T12:38:05;23.90;99.90
37446;DHT22;23307;51.136;14.942;2023-07-31T12:40:31;23.90;99.90
37446;DHT22;23307;51.136;14.942;2023-07-31T12:42:57;23.90;99.90
37446;DHT22;23307;51.136;14.942;2023-07-31T12:45:23;23.90;99.90
37446;DHT22;23307;51.136;14.942;2023-07-31T12:47:48;24.10;99.90
37446;DHT22;23307;51.136;14.942;2023-07-31T12:50:14;24.30;99.90
37446;DHT22;23307;51.136;14.942;2023-07-31T12:52:39;24.50;99.90
37446;DHT22;23307;51.136;14.942;2023-07-31T12:55:05;24.80;99.90
37446;DHT22;23307;51.136;14.942;2023-07-31T12:57:31;25.00;99.90
37446;DHT22;23307;51.136;14.942;2023-07-31T12:59:56;25.10;99.90
37446;DHT22;23307;51.136;14.942;2023-07-31T13:02:22;25.00;99.90
37446;DHT22;23307;51.136;14.942;2023-07-31T13:04:49;25.00;99.90
37446;DHT22;23307;51.136;14.942;2023-07-31T13:07:14;25.00;99.90
37446;DHT22;23307;51.136;14.942;2023-07-31T13:09:40;24.80;99.90
37446;DHT22;23307;51.136;14.942;2023-07-31T13:12:06;24.80;99.90
37446;DHT22;23307;51.136;14.942;2023-07-31T13:14:31;24.80;99.90
37446;DHT22;23307;51.136;14.942;2023-07-31T13:16:57;24.90;99.90
37446;DHT22;23307;51.136;14.942;2023-07-31T13:19:22;25.00;99.90
37446;DHT22;23307;51.136;14.942;2023-07-31T13:21:48;25.00;99.90
37446;DHT22;23307;51.136;14.942;2023-07-31T13:24:13;25.00;99.90
37446;DHT22;23307;51.136;14.942;2023-07-31T13:26:39;25.00;99.90
37446;DHT22;23307;51.136;14.942;2023-07-31T13:29:04;25.10;99.90
37446;DHT22;23307;51.136;14.942;2023-07-31T13:31:30;25.20;99.90
37446;DHT22;23307;51.136;14.942;2023-07-31T13:33:55;25.30;99.90
37446;DHT22;23307;51.136;14.942;2023-07-31T13:36:21;25.60;99.90
37446;DHT22;23307;51.136;14.942;2023-07-31T13:38:46;25.80;99.90
37446;DHT22;23307;51.136;14.942;2023-07-31T13:41:12;25.90;99.90
37446;DHT22;23307;51.136;14.942;2023-07-31T13:43:37;26.00;99.90
37446;DHT22;23307;51.136;14.942;2023-07-31T13:46:03;25.90;99.90
37446;DHT22;23307;51.136;14.942;2023-07-31T13:48:34;26.20;99.90
37446;DHT22;23307;51.136;14.942;2023-07-31T13:50:59;26.50;99.90
37446;DHT22;23307;51.136;14.942;2023-07-31T13:53:25;26.70;99.70
37446;DHT22;23307;51.136;14.942;2023-07-31T13:55:50;27.00;99.80
37446;DHT22;23307;51.136;14.942;2023-07-31T13:58:17;27.10;99.20
37446;DHT22;23307;51.136;14.942;2023-07-31T14:00:42;27.00;98.60
37446;DHT22;23307;51.136;14.942;2023-07-31T14:03:08;26.80;98.70
37446;DHT22;23307;51.136;14.942;2023-07-31T14:05:33;26.90;98.50
37446;DHT22;23307;51.136;14.942;2023-07-31T14:07:59;27.10;98.70
37446;DHT22;23307;51.136;14.942;2023-07-31T14:10:24;27.10;98.40
37446;DHT22;23307;51.136;14.942;2023-07-31T14:12:50;27.30;98.50
37446;DHT22;23307;51.136;14.942;2023-07-31T14:15:15;27.40;96.90
37446;DHT22;23307;51.136;14.942;2023-07-31T14:17:41;27.40;96.80
37446;DHT22;23307;51.136;14.942;2023-07-31T14:20:07;27.10;96.70
37446;DHT22;23307;51.136;14.942;2023-07-31T14:22:32;27.00;97.00
37446;DHT22;23307;51.136;14.942;2023-07-31T14:24:59;27.10;97.70
37446;DHT22;23307;51.136;14.942;2023-07-31T14:27:25;27.30;97.50
37446;DHT22;23307;51.136;14.942;2023-07-31T14:29:50;27.10;96.30
37446;DHT22;23307;51.136;14.942;2023-07-31T14:32:16;26.90;96.30
37446;DHT22;23307;51.136;14.942;2023-07-31T14:34:41;27.00;96.40
37446;DHT22;23307;51.136;14.942;2023-07-31T14:37:07;27.10;96.50
37446;DHT22;23307;51.136;14.942;2023-07-31T14:39:33;27.20;96.10
37446;DHT22;23307;51.136;14.942;2023-07-31T14:41:58;27.10;95.60
37446;DHT22;23307;51.136;14.942;2023-07-31T14:44:24;27.10;96.30
37446;DHT22;23307;51.136;14.942;2023-07-31T14:46:49;27.10;96.10
37446;DHT22;23307;51.136;14.942;2023-07-31T14:49:15;27.10;95.50
37446;DHT22;23307;51.136;14.942;2023-07-31T14:51:40;27.20;95.50
37446;DHT22;23307;51.136;14.942;2023-07-31T14:54:06;27.50;95.30
37446;DHT22;23307;51.136;14.942;2023-07-31T14:56:31;27.40;94.30
37446;DHT22;23307;51.136;14.942;2023-07-31T14:58:57;27.30;94.30
37446;DHT22;23307;51.136;14.942;2023-07-31T15:01:23;27.20;94.40
37446;DHT22;23307;51.136;14.942;2023-07-31T15:03:49;27.20;94.40
37446;DHT22;23307;51.136;14.942;2023-07-31T15:06:14;27.00;94.00
37446;DHT22;23307;51.136;14.942;2023-07-31T15:08:40;26.50;94.70
37446;DHT22;23307;51.136;14.942;2023-07-31T15:11:06;26.40;94.70
37446;DHT22;23307;51.136;14.942;2023-07-31T15:13:32;26.40;95.00
37446;DHT22;23307;51.136;14.942;2023-07-31T15:15:58;27.00;94.80